Carnival Victory — 3FFL8 — position and weather

sailwx.info

Track history (hours):
 
Tides and Currents Weather Stations Pressure Air Temp Water Temp Dewpoint Dewpoint Depression Visibility Wind Speed Wind Dir Waves Ship Positions

Carnival Victory

Operator: Carnival Cruise Lines

Last reported at 2017-Nov-24 22:00 UTC. Time now 2017-Nov-24 22:25 UTC.
Position N 25°46' W 080°06'.

Type: Passenger vessel. MMSI: 355263000.

Date/timePositionNaut miles runAvg speedWind from/ knotsBaromVisibWave heightAir tempDewpointWater temp
2017-Nov-24 22:00N 25°46' W 080°06'4 8.5
2017-Nov-24 21:30N 25°47' W 080°11'0 0.7
2017-Nov-24 20:58N 25°47' W 080°10'0 0.0
2017-Nov-24 20:28N 25°47' W 080°10'0 0.0
2017-Nov-24 19:58N 25°47' W 080°10'0 0.0
2017-Nov-24 19:28N 25°47' W 080°10'0 0.0
2017-Nov-24 18:58N 25°47' W 080°10'0 0.0
2017-Nov-24 18:28N 25°47' W 080°10'0 0.0
2017-Nov-24 17:58N 25°47' W 080°10'0 0.0
2017-Nov-24 17:28N 25°47' W 080°10'0 0.0
2017-Nov-24 16:58N 25°47' W 080°10'0 0.0
2017-Nov-24 16:28N 25°47' W 080°10'0 0.0
2017-Nov-24 15:58N 25°47' W 080°10'0 0.0
2017-Nov-24 15:28N 25°47' W 080°10'0 0.0
2017-Nov-24 14:58N 25°47' W 080°10'0 0.0
2017-Nov-24 14:22N 25°47' W 080°10'0 0.0
2017-Nov-24 13:49N 25°47' W 080°10'0 0.0
2017-Nov-24 13:28N 25°47' W 080°10'0 0.0
2017-Nov-24 12:58N 25°47' W 080°10'0 0.0
2017-Nov-24 12:28N 25°47' W 080°10'0 0.0
2017-Nov-24 12:00N 25°47' W 080°10'0 0.9
2017-Nov-24 11:30N 25°47' W 080°10'4 8.6
2017-Nov-24 11:00N 25°46' W 080°05'611.4
2017-Nov-24 10:30N 25°48' W 079°59'611.9
2017-Nov-24 10:00N 25°52' W 079°54'611.8
2017-Nov-24 09:30N 25°55' W 079°48'611.8
2017-Nov-24 09:01N 25°58' W 079°43'611.4
2017-Nov-24 08:30N 26°01' W 079°37'611.2
2017-Nov-24 08:00N 26°04' W 079°32'611.1
2017-Nov-24 07:30N 26°07' W 079°27'611.6
2017-Nov-24 07:00N 26°10' W 079°21'713.7
2017-Nov-24 06:30N 26°14' W 079°15'  
2017-Nov-18 03:51N 26°15' W 079°16'616.1
2017-Nov-18 03:30N 26°11' W 079°21'816.5
2017-Nov-18 03:00N 26°05' W 079°27'815.4
2017-Nov-18 02:30N 26°01' W 079°34'714.9
2017-Nov-18 02:00N 25°58' W 079°42'816.4
2017-Nov-18 01:30N 25°54' W 079°50'815.4
2017-Nov-18 01:00N 25°50' W 079°57'713.9
2017-Nov-18 00:30N 25°45' W 080°03'5 9.2
2017-Nov-18 00:00N 25°46' W 080°08'3 5.5
2017-Nov-17 23:28N 25°47' W 080°11'1 1.6
2017-Nov-17 22:59N 25°47' W 080°10'0 0.0
2017-Nov-17 22:29N 25°47' W 080°10'0 0.0
2017-Nov-17 21:59N 25°47' W 080°10'0 0.0
2017-Nov-17 21:29N 25°47' W 080°10'0 0.0
2017-Nov-17 20:59N 25°47' W 080°10'0 0.0
2017-Nov-17 20:29N 25°47' W 080°10'0 0.0
2017-Nov-17 19:59N 25°47' W 080°10'0 0.0
2017-Nov-17 19:29N 25°47' W 080°10'0 0.0
2017-Nov-17 18:59N 25°47' W 080°10'0 0.0
2017-Nov-17 18:29N 25°47' W 080°10'0 0.0
2017-Nov-17 17:59N 25°47' W 080°10'0 0.0
2017-Nov-17 17:20N 25°47' W 080°10'0 0.0
2017-Nov-17 16:56N 25°47' W 080°10'0 0.0
2017-Nov-17 16:26N 25°47' W 080°10'0 0.0
2017-Nov-17 15:53N 25°47' W 080°10'0 0.0
2017-Nov-17 15:29N 25°47' W 080°10'0 0.0
2017-Nov-17 14:53N 25°47' W 080°10'0 0.0
2017-Nov-17 14:26N 25°47' W 080°10'0 0.0
2017-Nov-17 13:56N 25°47' W 080°10'0 0.0
2017-Nov-17 13:29N 25°47' W 080°10'0 0.0
2017-Nov-17 12:56N 25°47' W 080°10'0 0.0
2017-Nov-17 12:26N 25°47' W 080°10'0 0.0
2017-Nov-17 11:59N 25°47' W 080°10'0 0.8
2017-Nov-17 11:30N 25°47' W 080°10'510.2
2017-Nov-17 11:00N 25°46' W 080°04'612.2
2017-Nov-17 10:30N 25°44' W 079°58'714.8
2017-Nov-17 10:01N 25°37' W 079°55'816.0
2017-Nov-17 09:31N 25°29' W 079°55'914.9
2017-Nov-17 08:56N 25°21' W 079°57'47016.3
2017-Nov-16 04:07N 20°44' W 086°50'219.4
2017-Nov-16 04:01N 20°42' W 086°51'1019.1
2017-Nov-16 03:30N 20°36' W 086°59'713.1
2017-Nov-16 02:59N 20°29' W 086°59'0 0.5
2017-Nov-16 02:26N 20°29' W 086°59'0 0.0
2017-Nov-16 01:56N 20°29' W 086°59'0 0.0
2017-Nov-16 01:26N 20°29' W 086°59'0 0.0
2017-Nov-16 00:56N 20°29' W 086°59'0 0.0
2017-Nov-16 00:26N 20°29' W 086°59'0 0.0
2017-Nov-15 23:56N 20°29' W 086°59'0 0.0
2017-Nov-15 23:26N 20°29' W 086°59'0 0.0
2017-Nov-15 22:56N 20°29' W 086°59'0 0.0
2017-Nov-15 22:26N 20°29' W 086°59'0 0.0
2017-Nov-15 21:56N 20°29' W 086°59'0 0.0
2017-Nov-15 21:26N 20°29' W 086°59'0 0.0
2017-Nov-15 20:56N 20°29' W 086°59'0 0.0
2017-Nov-15 20:26N 20°29' W 086°59'0 0.0
2017-Nov-15 19:56N 20°29' W 086°59'0 0.0
2017-Nov-15 19:26N 20°29' W 086°59'0 0.0
2017-Nov-15 18:56N 20°29' W 086°59'0 0.0
2017-Nov-15 18:26N 20°29' W 086°59'0 0.0
2017-Nov-15 17:56N 20°29' W 086°59'0 0.0
2017-Nov-15 17:26N 20°29' W 086°59'0 0.0
2017-Nov-15 16:56N 20°29' W 086°59'0 0.6
2017-Nov-15 16:30N 20°29' W 086°59'4 8.9
2017-Nov-15 16:01N 20°33' W 086°59'  
Track history (hours):
 
Tides and Currents Weather Stations Pressure Air Temp Water Temp Dewpoint Dewpoint Depression Visibility Wind Speed Wind Dir Waves Ship Positions

Carnival Victory

Operator: Carnival Cruise Lines

Last reported at 2017-Nov-24 22:00 UTC. Time now 2017-Nov-24 22:25 UTC.
Position N 25°46' W 080°06'.

Type: Passenger vessel. MMSI: 355263000.

Date/timePositionNaut miles runAvg speedWind from/ knotsBaromVisibWave heightAir tempDewpointWater temp
2017-Nov-24 22:00N 25°46' W 080°06'4 8.5
2017-Nov-24 21:30N 25°47' W 080°11'0 0.7
2017-Nov-24 20:58N 25°47' W 080°10'0 0.0
2017-Nov-24 20:28N 25°47' W 080°10'0 0.0
2017-Nov-24 19:58N 25°47' W 080°10'0 0.0
2017-Nov-24 19:28N 25°47' W 080°10'0 0.0
2017-Nov-24 18:58N 25°47' W 080°10'0 0.0
2017-Nov-24 18:28N 25°47' W 080°10'0 0.0
2017-Nov-24 17:58N 25°47' W 080°10'0 0.0
2017-Nov-24 17:28N 25°47' W 080°10'0 0.0
2017-Nov-24 16:58N 25°47' W 080°10'0 0.0
2017-Nov-24 16:28N 25°47' W 080°10'0 0.0
2017-Nov-24 15:58N 25°47' W 080°10'0 0.0
2017-Nov-24 15:28N 25°47' W 080°10'0 0.0
2017-Nov-24 14:58N 25°47' W 080°10'0 0.0
2017-Nov-24 14:22N 25°47' W 080°10'0 0.0
2017-Nov-24 13:49N 25°47' W 080°10'0 0.0
2017-Nov-24 13:28N 25°47' W 080°10'0 0.0
2017-Nov-24 12:58N 25°47' W 080°10'0 0.0
2017-Nov-24 12:28N 25°47' W 080°10'0 0.0
2017-Nov-24 12:00N 25°47' W 080°10'0 0.9
2017-Nov-24 11:30N 25°47' W 080°10'4 8.6
2017-Nov-24 11:00N 25°46' W 080°05'611.4
2017-Nov-24 10:30N 25°48' W 079°59'611.9
2017-Nov-24 10:00N 25°52' W 079°54'611.8
2017-Nov-24 09:30N 25°55' W 079°48'611.8
2017-Nov-24 09:01N 25°58' W 079°43'611.4
2017-Nov-24 08:30N 26°01' W 079°37'611.2
2017-Nov-24 08:00N 26°04' W 079°32'611.1
2017-Nov-24 07:30N 26°07' W 079°27'611.6
2017-Nov-24 07:00N 26°10' W 079°21'713.7
2017-Nov-24 06:30N 26°14' W 079°15'  
2017-Nov-18 03:51N 26°15' W 079°16'616.1
2017-Nov-18 03:30N 26°11' W 079°21'816.5
2017-Nov-18 03:00N 26°05' W 079°27'815.4
2017-Nov-18 02:30N 26°01' W 079°34'714.9
2017-Nov-18 02:00N 25°58' W 079°42'816.4
2017-Nov-18 01:30N 25°54' W 079°50'815.4
2017-Nov-18 01:00N 25°50' W 079°57'713.9
2017-Nov-18 00:30N 25°45' W 080°03'5 9.2
2017-Nov-18 00:00N 25°46' W 080°08'3 5.5
2017-Nov-17 23:28N 25°47' W 080°11'1 1.6
2017-Nov-17 22:59N 25°47' W 080°10'0 0.0
2017-Nov-17 22:29N 25°47' W 080°10'0 0.0
2017-Nov-17 21:59N 25°47' W 080°10'0 0.0
2017-Nov-17 21:29N 25°47' W 080°10'0 0.0
2017-Nov-17 20:59N 25°47' W 080°10'0 0.0
2017-Nov-17 20:29N 25°47' W 080°10'0 0.0
2017-Nov-17 19:59N 25°47' W 080°10'0 0.0
2017-Nov-17 19:29N 25°47' W 080°10'0 0.0
2017-Nov-17 18:59N 25°47' W 080°10'0 0.0
2017-Nov-17 18:29N 25°47' W 080°10'0 0.0
2017-Nov-17 17:59N 25°47' W 080°10'0 0.0
2017-Nov-17 17:20N 25°47' W 080°10'0 0.0
2017-Nov-17 16:56N 25°47' W 080°10'0 0.0
2017-Nov-17 16:26N 25°47' W 080°10'0 0.0
2017-Nov-17 15:53N 25°47' W 080°10'0 0.0
2017-Nov-17 15:29N 25°47' W 080°10'0 0.0
2017-Nov-17 14:53N 25°47' W 080°10'0 0.0
2017-Nov-17 14:26N 25°47' W 080°10'0 0.0
2017-Nov-17 13:56N 25°47' W 080°10'0 0.0
2017-Nov-17 13:29N 25°47' W 080°10'0 0.0
2017-Nov-17 12:56N 25°47' W 080°10'0 0.0
2017-Nov-17 12:26N 25°47' W 080°10'0 0.0
2017-Nov-17 11:59N 25°47' W 080°10'0 0.8
2017-Nov-17 11:30N 25°47' W 080°10'510.2
2017-Nov-17 11:00N 25°46' W 080°04'612.2
2017-Nov-17 10:30N 25°44' W 079°58'714.8
2017-Nov-17 10:01N 25°37' W 079°55'816.0
2017-Nov-17 09:31N 25°29' W 079°55'914.9
2017-Nov-17 08:56N 25°21' W 079°57'47016.3
2017-Nov-16 04:07N 20°44' W 086°50'219.4
2017-Nov-16 04:01N 20°42' W 086°51'1019.1
2017-Nov-16 03:30N 20°36' W 086°59'713.1
2017-Nov-16 02:59N 20°29' W 086°59'0 0.5
2017-Nov-16 02:26N 20°29' W 086°59'0 0.0
2017-Nov-16 01:56N 20°29' W 086°59'0 0.0
2017-Nov-16 01:26N 20°29' W 086°59'0 0.0
2017-Nov-16 00:56N 20°29' W 086°59'0 0.0
2017-Nov-16 00:26N 20°29' W 086°59'0 0.0
2017-Nov-15 23:56N 20°29' W 086°59'0 0.0
2017-Nov-15 23:26N 20°29' W 086°59'0 0.0
2017-Nov-15 22:56N 20°29' W 086°59'0 0.0
2017-Nov-15 22:26N 20°29' W 086°59'0 0.0
2017-Nov-15 21:56N 20°29' W 086°59'0 0.0
2017-Nov-15 21:26N 20°29' W 086°59'0 0.0
2017-Nov-15 20:56N 20°29' W 086°59'0 0.0
2017-Nov-15 20:26N 20°29' W 086°59'0 0.0
2017-Nov-15 19:56N 20°29' W 086°59'0 0.0
2017-Nov-15 19:26N 20°29' W 086°59'0 0.0
2017-Nov-15 18:56N 20°29' W 086°59'0 0.0
2017-Nov-15 18:26N 20°29' W 086°59'0 0.0
2017-Nov-15 17:56N 20°29' W 086°59'0 0.0
2017-Nov-15 17:26N 20°29' W 086°59'0 0.0
2017-Nov-15 16:56N 20°29' W 086°59'0 0.6
2017-Nov-15 16:30N 20°29' W 086°59'4 8.9
2017-Nov-15 16:01N 20°33' W 086°59'  

Dump ship's entire track history